Time;durP1;ratioP1;P1;durP2;ratioP2;P2;SDS_P1;SDS_P2;PMS_P1;PMS_P2;Temp;Humidity;BMP_temperature;BMP_pressure;BME280_temperature;BME280_humidity;BME280_pressure;Samples;Min_cycle;Max_cycle;Signal;HPM_P1;HPM_P2
2022/10/14 00:01:23;;;;;;;53.17;23.73;;;;;;;12.96;100.00;101507.88;5203803;28;20368;-71
2022/10/14 00:03:54;;;;;;;50.13;24.55;;;;;;;12.97;100.00;101508.72;5203855;28;20029;-70
2022/10/14 00:06:29;;;;;;;51.83;25.00;;;;;;;12.96;100.00;101505.19;5203235;28;20040;-70
2022/10/14 00:09:06;;;;;;;54.13;24.55;;;;;;;12.96;100.00;101489.03;5203359;28;20037;-71
2022/10/14 00:11:36;;;;;;;53.58;23.63;;;;;;;12.95;100.00;101487.34;5203500;28;20498;-70
2022/10/14 00:14:14;;;;;;;50.25;23.83;;;;;;;12.96;100.00;101478.25;5203619;28;20029;-71
2022/10/14 00:16:46;;;;;;;51.15;24.25;;;;;;;12.97;100.00;101479.09;5203221;28;20018;-71
2022/10/14 00:19:16;;;;;;;51.05;24.73;;;;;;;12.97;100.00;101465.63;5203280;28;20387;-70
2022/10/14 00:21:47;;;;;;;53.92;25.67;;;;;;;12.97;100.00;101473.72;5203043;28;20030;-71
2022/10/14 00:24:17;;;;;;;55.67;24.88;;;;;;;12.95;100.00;101471.19;5203436;28;20025;-71
2022/10/14 00:26:48;;;;;;;53.13;24.40;;;;;;;12.95;100.00;101464.94;5202878;28;20028;-71
2022/10/14 00:29:19;;;;;;;58.20;25.98;;;;;;;12.96;100.00;101467.50;5203198;28;20026;-69
2022/10/14 00:31:50;;;;;;;53.65;24.35;;;;;;;12.98;100.00;101469.16;5203211;28;20407;-70
2022/10/14 00:34:21;;;;;;;49.63;23.35;;;;;;;13.00;100.00;101459.06;5201821;28;20395;-70
2022/10/14 00:36:51;;;;;;;52.88;24.95;;;;;;;13.00;100.00;101465.28;5202400;28;20030;-71
2022/10/14 00:39:22;;;;;;;51.25;24.20;;;;;;;13.01;100.00;101466.16;5203210;28;20123;-71
2022/10/14 00:41:52;;;;;;;55.35;24.10;;;;;;;13.00;100.00;101465.28;5203129;28;20253;-70
2022/10/14 00:44:23;;;;;;;49.08;24.65;;;;;;;13.01;100.00;101464.28;5203394;28;20022;-71
2022/10/14 00:46:54;;;;;;;53.22;24.73;;;;;;;13.01;100.00;101453.53;5202132;28;20022;-70
2022/10/14 00:49:43;;;;;;;56.88;25.33;;;;;;;13.01;100.00;101448.13;5203321;28;20030;-71
2022/10/14 00:52:18;;;;;;;49.40;23.02;;;;;;;13.03;100.00;101445.25;5203391;28;20471;-71
2022/10/14 00:55:01;;;;;;;58.10;24.90;;;;;;;13.04;100.00;101447.78;5202920;28;20483;-71
2022/10/14 00:57:32;;;;;;;53.22;23.60;;;;;;;13.07;100.00;101443.94;5202616;28;20026;-71
2022/10/14 01:00:13;;;;;;;51.83;23.40;;;;;;;13.06;100.00;101442.25;5203202;28;20036;-71
2022/10/14 01:02:44;;;;;;;46.80;21.52;;;;;;;13.06;100.00;101443.09;5203390;28;20029;-71
2022/10/14 01:05:18;;;;;;;49.92;23.45;;;;;;;13.07;100.00;101442.06;5203254;28;20078;-71
2022/10/14 01:08:16;;;;;;;51.47;23.98;;;;;;;13.05;100.00;101436.03;5202608;28;20013;-71
2022/10/14 01:11:22;;;;;;;48.00;22.33;;;;;;;13.06;100.00;101428.78;5203103;28;20045;-70
2022/10/14 01:14:07;;;;;;;49.22;23.58;;;;;;;13.06;100.00;101443.09;5202967;28;20447;-71
2022/10/14 01:16:51;;;;;;;56.28;24.10;;;;;;;13.05;100.00;101440.53;5202702;28;20483;-71
2022/10/14 01:19:46;;;;;;;51.28;23.38;;;;;;;13.05;100.00;101436.03;5202960;28;20029;-71
2022/10/14 01:22:23;;;;;;;;;;;;;;;13.04;100.00;101428.94;5203331;28;20037;-71
2022/10/14 01:25:27;;;;;;;59.88;22.58;;;;;;;13.05;100.00;101427.06;5203022;28;20488;-71
2022/10/14 01:28:16;;;;;;;58.38;24.45;;;;;;;13.06;100.00;101439.56;5202257;28;20104;-71
2022/10/14 01:31:03;;;;;;;51.10;23.13;;;;;;;13.08;100.00;101422.19;5202743;28;20055;-70
2022/10/14 01:33:41;;;;;;;56.15;23.20;;;;;;;13.09;100.00;101429.25;5204402;28;20726;-70
2022/10/14 01:36:29;;;;;;;52.33;23.48;;;;;;;13.09;100.00;101423.03;5208297;28;20080;-70
2022/10/14 01:39:06;;;;;;;50.20;23.13;;;;;;;13.10;100.00;101422.88;5206174;28;20033;-71
2022/10/14 01:42:01;;;;;;;54.40;22.98;;;;;;;13.11;100.00;101423.72;5206183;28;20454;-70
2022/10/14 01:44:34;;;;;;;44.00;20.98;;;;;;;13.11;100.00;101421.88;5207430;28;20098;-71
2022/10/14 01:47:07;;;;;;;54.22;22.58;;;;;;;13.12;100.00;101415.47;5207199;28;20020;-70
2022/10/14 01:49:49;;;;;;;49.45;22.17;;;;;;;13.12;100.00;101415.47;5206827;28;20034;-70
2022/10/14 01:52:26;;;;;;;46.40;21.63;;;;;;;13.13;100.00;101422.53;5206550;28;20021;-70
2022/10/14 01:55:02;;;;;;;46.08;21.23;;;;;;;13.13;100.00;101409.06;5206296;28;20391;-70
2022/10/14 01:57:37;;;;;;;47.58;20.88;;;;;;;13.15;100.00;101408.88;5205592;28;20568;-71
2022/10/14 02:00:10;;;;;;;49.38;21.23;;;;;;;13.15;100.00;101404.38;5205004;28;20057;-70
2022/10/14 02:02:41;;;;;;;50.47;21.45;;;;;;;13.16;100.00;101405.22;5206181;28;20025;-71
2022/10/14 02:05:21;;;;;;;51.50;20.92;;;;;;;13.15;100.00;101404.38;5206150;28;20068;-71
2022/10/14 02:08:00;;;;;;;49.75;20.58;;;;;;;13.15;100.00;101403.50;5205024;28;20068;-70
2022/10/14 02:10:50;;;;;;;48.13;20.17;;;;;;;13.16;100.00;101397.97;5206015;28;20386;-70
2022/10/14 02:13:43;;;;;;;47.60;20.67;;;;;;;13.16;100.00;101400.66;5205675;28;20033;-70
2022/10/14 02:16:19;;;;;;;45.38;19.25;;;;;;;13.15;100.00;101390.91;5205582;28;20033;-70
2022/10/14 02:19:07;;;;;;;45.65;20.85;;;;;;;13.17;100.00;101394.25;5205366;28;20029;-71
2022/10/14 02:21:58;;;;;;;42.85;20.13;;;;;;;13.17;100.00;101385.34;5205788;28;20029;-70
2022/10/14 02:24:31;;;;;;;47.53;21.13;;;;;;;13.19;100.00;101386.00;5204377;28;20025;-70
2022/10/14 02:27:06;;;;;;;47.55;20.00;;;;;;;13.18;100.00;101389.69;5204798;28;20032;-70
2022/10/14 02:29:39;;;;;;;45.60;20.60;;;;;;;13.19;100.00;101378.75;5205517;28;20041;-70
2022/10/14 02:32:14;;;;;;;47.25;20.65;;;;;;;13.21;100.00;101381.28;5205269;28;20045;-70
2022/10/14 02:34:49;;;;;;;52.55;20.98;;;;;;;13.19;100.00;101367.97;5205700;28;20070;-70
2022/10/14 02:37:22;;;;;;;48.28;20.48;;;;;;;13.19;100.00;101361.75;5203843;28;20411;-70
2022/10/14 02:40:10;;;;;;;49.10;21.20;;;;;;;13.19;100.00;101353.66;5205466;28;20030;-70
2022/10/14 02:42:41;;;;;;;45.97;18.98;;;;;;;13.16;100.00;101341.38;5205348;28;20170;-70
2022/10/14 02:45:13;;;;;;;49.55;19.55;;;;;;;13.16;100.00;101346.78;5205525;28;20029;-70
2022/10/14 02:47:43;;;;;;;49.75;19.73;;;;;;;13.15;100.00;101345.09;5204133;28;20116;-71
2022/10/14 02:50:14;;;;;;;46.70;19.63;;;;;;;13.14;100.00;101340.69;5205048;28;20108;-71
2022/10/14 02:52:45;;;;;;;54.83;19.67;;;;;;;13.14;100.00;101337.16;5205121;28;20025;-71
2022/10/14 02:55:15;;;;;;;53.67;19.90;;;;;;;13.16;100.00;101327.06;5205040;28;20487;-70
2022/10/14 02:57:46;;;;;;;45.58;19.52;;;;;;;13.17;100.00;101334.13;5204274;28;20068;-70
2022/10/14 03:00:17;;;;;;;42.72;20.27;;;;;;;13.17;100.00;101332.28;5204558;28;20781;-70
2022/10/14 03:02:48;;;;;;;45.03;19.45;;;;;;;13.16;100.00;101332.47;5204888;28;20546;-71
2022/10/14 03:05:18;;;;;;;38.47;18.80;;;;;;;13.16;100.00;101324.38;5204913;28;20112;-70
2022/10/14 03:07:49;;;;;;;46.13;18.85;;;;;;;13.16;100.00;101319.84;5204133;28;20490;-70
2022/10/14 03:10:19;;;;;;;46.03;19.48;;;;;;;13.16;100.00;101321.69;5204886;28;20398;-70
2022/10/14 03:12:50;;;;;;;41.88;18.15;;;;;;;13.16;100.00;101321.69;5204379;28;20116;-71
2022/10/14 03:15:20;;;;;;;46.45;19.15;;;;;;;13.18;100.00;101322.34;5204788;28;20049;-70
2022/10/14 03:17:51;;;;;;;40.92;18.48;;;;;;;13.18;100.00;101322.34;5203812;28;20108;-71
2022/10/14 03:20:21;;;;;;;52.47;18.88;;;;;;;13.16;100.00;101319.84;5204689;28;20053;-70
2022/10/14 03:22:52;;;;;;;37.90;18.20;;;;;;;13.17;100.00;101318.81;5204161;28;20036;-70
2022/10/14 03:25:23;;;;;;;43.00;18.40;;;;;;;13.17;100.00;101324.19;5204498;28;20057;-70
2022/10/14 03:27:53;;;;;;;42.00;18.92;;;;;;;13.16;100.00;101314.44;5203781;28;20052;-70
2022/10/14 03:30:24;;;;;;;42.92;18.83;;;;;;;13.16;100.00;101311.75;5204437;28;20508;-70
2022/10/14 03:32:54;;;;;;;43.53;19.73;;;;;;;13.17;100.00;101318.81;5204311;28;20040;-70
2022/10/14 03:35:25;;;;;;;41.53;18.38;;;;;;;13.17;100.00;101310.72;5203943;28;20053;-71
2022/10/14 03:37:55;;;;;;;45.15;18.88;;;;;;;13.19;100.00;101308.69;5203199;28;20363;-71
2022/10/14 03:40:26;;;;;;;43.85;18.42;;;;;;;13.19;100.00;101310.56;5204077;28;20022;-70
2022/10/14 03:42:59;;;;;;;42.60;19.90;;;;;;;13.19;100.00;101307.84;5204228;28;20049;-70
2022/10/14 03:45:30;;;;;;;47.13;19.70;;;;;;;13.20;100.00;101307.72;5204007;28;20103;-70
2022/10/14 03:48:00;;;;;;;50.22;21.17;;;;;;;13.20;100.00;101298.75;5202999;28;20053;-70
2022/10/14 03:50:31;;;;;;;44.65;18.83;;;;;;;13.20;100.00;101294.25;5203954;28;20116;-70
2022/10/14 03:53:01;;;;;;;51.45;19.55;;;;;;;13.20;100.00;101298.75;5202810;28;20044;-70
2022/10/14 03:55:32;;;;;;;41.78;19.08;;;;;;;13.21;100.00;101300.47;5203922;28;20017;-70
2022/10/14 03:58:03;;;;;;;39.95;18.90;;;;;;;13.22;100.00;101291.41;5202672;28;20060;-70
2022/10/14 04:00:34;;;;;;;44.55;18.65;;;;;;;13.23;100.00;101287.69;5203771;28;20112;-70
2022/10/14 04:03:05;;;;;;;46.13;19.77;;;;;;;13.23;100.00;101292.22;5203857;28;20025;-71
2022/10/14 04:05:35;;;;;;;42.38;19.45;;;;;;;13.21;100.00;101290.56;5204140;28;20033;-71
2022/10/14 04:08:07;;;;;;;46.42;20.38;;;;;;;13.24;100.00;101296.59;5202922;28;20147;-69
2022/10/14 04:10:37;;;;;;;40.50;19.05;;;;;;;13.23;100.00;101295.75;5203865;28;20041;-71
2022/10/14 04:13:08;;;;;;;43.55;18.95;;;;;;;13.23;100.00;101293.06;5203143;28;20033;-71
2022/10/14 04:15:38;;;;;;;38.40;18.67;;;;;;;13.21;100.00;101285.16;5203723;28;20021;-69
2022/10/14 04:18:09;;;;;;;37.10;18.23;;;;;;;13.24;100.00;101286.66;5202970;28;20492;-71
2022/10/14 04:20:40;;;;;;;43.05;17.85;;;;;;;13.23;100.00;101287.69;5203602;28;20422;-70
2022/10/14 04:23:10;;;;;;;36.30;16.90;;;;;;;13.24;100.00;101283.97;5203443;28;20151;-71
2022/10/14 04:25:41;;;;;;;36.30;17.17;;;;;;;13.23;100.00;101282.28;5203387;28;20033;-70
2022/10/14 04:28:11;;;;;;;34.63;17.58;;;;;;;13.25;100.00;101284.81;5202913;28;20032;-70
2022/10/14 04:30:42;;;;;;;37.65;17.60;;;;;;;13.23;100.00;101282.28;5203176;28;20026;-70
2022/10/14 04:33:13;;;;;;;36.92;16.95;;;;;;;13.23;100.00;101286.84;5203779;28;20447;-70
2022/10/14 04:35:44;;;;;;;39.17;18.38;;;;;;;13.21;100.00;101276.22;5203119;28;20028;-70
2022/10/14 04:38:14;;;;;;;38.42;17.90;;;;;;;13.22;100.00;101280.63;5202116;28;20083;-71
2022/10/14 04:40:47;;;;;;;38.22;17.90;;;;;;;13.23;100.00;101271.50;5203386;28;20104;-70
2022/10/14 04:43:18;;;;;;;44.15;17.58;;;;;;;13.23;100.00;101273.38;5203457;28;20155;-70
2022/10/14 04:45:49;;;;;;;38.00;17.02;;;;;;;13.24;100.00;101277.75;5203423;28;20026;-70
2022/10/14 04:48:20;;;;;;;33.38;16.77;;;;;;;13.24;100.00;101266.97;5202615;28;20040;-71
2022/10/14 04:50:52;;;;;;;41.63;17.55;;;;;;;13.22;100.00;101264.44;5203452;28;20079;-70
2022/10/14 04:53:22;;;;;;;39.08;17.85;;;;;;;13.21;100.00;101263.63;5201975;28;20040;-70
2022/10/14 04:55:53;;;;;;;38.20;18.10;;;;;;;13.21;100.00;101257.34;5203422;28;20029;-71
2022/10/14 04:58:23;;;;;;;38.42;17.77;;;;;;;13.22;100.00;101256.38;5202414;28;20045;-70
2022/10/14 05:00:56;;;;;;;39.00;17.70;;;;;;;13.23;100.00;101254.50;5202874;28;20025;-71
2022/10/14 05:03:27;;;;;;;37.55;17.48;;;;;;;13.21;100.00;101250.16;5203242;28;20483;-71
2022/10/14 05:05:58;;;;;;;39.40;17.85;;;;;;;13.24;100.00;101250.78;5203212;28;20032;-71
2022/10/14 05:08:28;;;;;;;37.05;17.30;;;;;;;13.24;100.00;101248.09;5202321;28;20024;-71
2022/10/14 05:10:59;;;;;;;39.47;17.15;;;;;;;13.23;100.00;101249.97;5207287;28;20064;-71
2022/10/14 05:13:29;;;;;;;38.17;17.42;;;;;;;13.24;100.00;101243.56;5206767;28;20025;-70
2022/10/14 05:16:01;;;;;;;31.08;16.05;;;;;;;13.24;100.00;101248.94;5207025;28;20470;-70
2022/10/14 05:18:32;;;;;;;38.33;16.90;;;;;;;13.25;100.00;101244.38;5206427;28;20026;-70
2022/10/14 05:21:02;;;;;;;38.92;15.63;;;;;;;13.27;100.00;101248.59;5206872;28;20021;-71
2022/10/14 05:23:33;;;;;;;40.67;17.00;;;;;;;13.25;100.00;101247.09;5206929;28;20025;-70
2022/10/14 05:26:04;;;;;;;36.28;16.58;;;;;;;13.26;100.00;101243.41;5206488;28;20037;-71
2022/10/14 05:28:34;;;;;;;37.33;17.33;;;;;;;13.27;100.00;101235.13;5206240;28;20025;-70
2022/10/14 05:31:05;;;;;;;35.58;16.50;;;;;;;13.30;100.00;101239.31;5206470;28;20026;-71
2022/10/14 05:33:36;;;;;;;34.03;16.85;;;;;;;13.30;100.00;101225.84;5206986;28;20049;-71
2022/10/14 05:36:07;;;;;;;33.25;15.93;;;;;;;13.31;100.00;101222.16;5206425;28;20501;-70
2022/10/14 05:38:37;;;;;;;37.78;16.33;;;;;;;13.31;100.00;101219.47;5204314;28;20112;-71
2022/10/14 05:41:08;;;;;;;37.88;16.00;;;;;;;13.32;100.00;101215.75;5206725;28;20109;-71
2022/10/14 05:43:41;;;;;;;39.45;16.90;;;;;;;13.31;100.00;101209.53;5206439;28;20034;-70
2022/10/14 05:46:11;;;;;;;35.97;16.33;;;;;;;13.31;100.00;101208.69;5205471;28;20100;-71
2022/10/14 05:48:42;;;;;;;36.92;16.33;;;;;;;13.30;100.00;101197.03;5205681;28;20463;-71
2022/10/14 05:51:14;;;;;;;35.22;15.93;;;;;;;13.28;100.00;101204.47;5206457;28;20490;-71
2022/10/14 05:53:44;;;;;;;40.67;17.85;;;;;;;13.30;100.00;101198.91;5215959;28;20031;-69
2022/10/14 05:56:15;;;;;;;41.08;18.30;;;;;;;13.31;100.00;101192.53;5209877;28;20017;-70
2022/10/14 05:58:45;;;;;;;40.00;16.88;;;;;;;13.31;100.00;101198.75;5205560;28;20036;-70
2022/10/14 06:01:16;;;;;;;42.55;18.13;;;;;;;13.33;100.00;101203.94;5205909;28;20017;-71
2022/10/14 06:03:50;;;;;;;38.10;16.42;;;;;;;13.32;100.00;101203.13;5206129;28;20037;-71
2022/10/14 06:06:21;;;;;;;41.45;16.73;;;;;;;13.35;100.00;101204.59;5205968;28;20100;-70
2022/10/14 06:08:55;;;;;;;43.75;17.63;;;;;;;13.32;100.00;101197.72;5205467;28;20159;-71
2022/10/14 06:11:26;;;;;;;43.53;17.27;;;;;;;13.36;100.00;101196.38;5206008;28;20028;-70
2022/10/14 06:13:57;;;;;;;39.17;17.13;;;;;;;13.37;100.00;101192.66;5205632;28;20029;-71
2022/10/14 06:16:27;;;;;;;40.03;17.05;;;;;;;13.37;100.00;101187.25;5205578;28;20021;-70
2022/10/14 06:18:58;;;;;;;45.90;17.75;;;;;;;13.38;100.00;101188.09;5205443;28;20036;-71
2022/10/14 06:21:29;;;;;;;50.92;18.90;;;;;;;13.36;100.00;101199.06;5205397;28;20021;-71
2022/10/14 06:23:59;;;;;;;40.72;17.70;;;;;;;13.36;100.00;101190.13;5205816;28;20029;-71
2022/10/14 06:26:29;;;;;;;56.80;19.20;;;;;;;13.35;100.00;101191.97;5204975;28;20021;-70
2022/10/14 06:29:00;;;;;;;46.88;18.08;;;;;;;13.34;100.00;101193.00;5205306;28;20133;-71
2022/10/14 06:31:31;;;;;;;58.05;19.00;;;;;;;13.35;100.00;101188.44;5205698;28;20096;-71
2022/10/14 06:34:05;;;;;;;61.47;20.50;;;;;;;13.35;100.00;101191.13;5204300;28;20108;-71
2022/10/14 06:36:38;;;;;;;55.10;19.05;;;;;;;13.34;100.00;101186.75;5205293;28;20460;-71
2022/10/14 06:39:09;;;;;;;55.22;20.27;;;;;;;13.33;100.00;101183.22;5204809;28;20108;-71
2022/10/14 06:41:40;;;;;;;53.42;18.55;;;;;;;13.33;100.00;101180.53;5205791;28;20133;-71
2022/10/14 06:44:10;;;;;;;57.85;20.10;;;;;;;13.33;100.00;101177.00;5205236;28;20395;-71
2022/10/14 06:46:42;;;;;;;56.75;19.98;;;;;;;13.34;100.00;101174.13;5202751;28;20025;-70
2022/10/14 06:49:15;;;;;;;56.28;20.55;;;;;;;13.34;100.00;101167.91;5187347;28;20032;-70
2022/10/14 06:51:45;;;;;;;45.00;18.50;;;;;;;13.33;100.00;101169.75;5197983;28;20025;-70
2022/10/14 06:54:16;;;;;;;48.17;20.13;;;;;;;13.36;100.00;101160.50;5202803;28;20025;-71
2022/10/14 06:56:49;;;;;;;47.45;18.60;;;;;;;13.39;100.00;101162.81;5203092;28;20120;-71
2022/10/14 06:59:20;;;;;;;47.58;18.73;;;;;;;13.42;100.00;101167.88;5203794;28;20100;-71
2022/10/14 07:01:51;;;;;;;46.42;19.92;;;;;;;13.44;100.00;101166.66;5203111;28;20506;-70
2022/10/14 07:04:21;;;;;;;46.97;18.88;;;;;;;13.44;100.00;101166.66;5202442;28;20478;-72
2022/10/14 07:06:52;;;;;;;44.00;18.67;;;;;;;13.49;100.00;101168.81;5202517;28;20101;-71
2022/10/14 07:09:23;;;;;;;39.92;17.13;;;;;;;13.52;100.00;101175.72;5203639;28;20029;-71
2022/10/14 07:11:54;;;;;;;45.13;18.60;;;;;;;13.55;100.00;101172.66;5203665;28;20025;-71
2022/10/14 07:14:25;;;;;;;44.53;17.55;;;;;;;13.54;100.00;101166.44;5201153;28;20025;-71
2022/10/14 07:16:55;;;;;;;52.55;18.92;;;;;;;13.56;100.00;101175.19;5197107;28;20443;-72
2022/10/14 07:19:26;;;;;;;46.00;19.55;;;;;;;13.58;100.00;101173.16;5200362;28;20077;-71
2022/10/14 07:21:56;;;;;;;37.83;17.33;;;;;;;13.59;100.00;101171.28;5200400;28;20029;-71
2022/10/14 07:24:27;;;;;;;36.25;17.42;;;;;;;13.58;100.00;101169.63;5201231;28;20013;-71
2022/10/14 07:26:57;;;;;;;39.65;17.23;;;;;;;13.61;100.00;101174.66;5199740;28;20033;-71
2022/10/14 07:29:28;;;;;;;39.47;16.90;;;;;;;13.62;100.00;101174.47;5200962;28;20026;-71
2022/10/14 07:31:58;;;;;;;43.95;18.30;;;;;;;13.64;100.00;101160.81;5200192;28;20033;-71
2022/10/14 07:34:29;;;;;;;40.50;17.20;;;;;;;13.68;100.00;101172.94;5201104;28;20025;-71
2022/10/14 07:37:00;;;;;;;37.85;16.77;;;;;;;13.69;100.00;101170.03;5199704;28;20037;-71
2022/10/14 07:39:30;;;;;;;40.50;17.00;;;;;;;13.71;100.00;101168.03;5200248;28;20869;-72
2022/10/14 07:42:01;;;;;;;41.15;18.27;;;;;;;13.71;100.00;101168.03;5201215;28;20018;-71
2022/10/14 07:44:31;;;;;;;42.08;17.88;;;;;;;13.76;100.00;101166.66;5201247;28;20021;-71
2022/10/14 07:47:02;;;;;;;40.67;17.77;;;;;;;13.74;100.00;101173.03;5199658;28;20017;-71
2022/10/14 07:49:32;;;;;;;38.45;17.02;;;;;;;13.73;100.00;101170.53;5200538;28;20033;-72
2022/10/14 07:52:03;;;;;;;44.00;18.25;;;;;;;13.76;100.00;101164.78;5200571;28;20102;-71
2022/10/14 07:54:33;;;;;;;36.72;17.60;;;;;;;13.80;100.00;101162.56;5200850;28;20053;-72
2022/10/14 07:57:04;;;;;;;35.30;16.80;;;;;;;13.81;100.00;101156.16;5199663;28;20017;-70
2022/10/14 07:59:34;;;;;;;39.25;17.33;;;;;;;13.80;100.00;101159.84;5200640;28;20017;-71
2022/10/14 08:02:05;;;;;;;41.72;18.13;;;;;;;13.84;100.00;101158.47;5200028;28;20414;-70
2022/10/14 08:04:35;;;;;;;37.38;17.38;;;;;;;13.87;100.00;101160.84;5200281;28;20053;-71
2022/10/14 08:07:06;;;;;;;40.22;17.73;;;;;;;13.92;100.00;101164.66;5199495;28;20024;-71
2022/10/14 08:09:36;;;;;;;40.15;17.85;;;;;;;13.92;100.00;101158.44;5200215;28;20037;-71
2022/10/14 08:12:07;;;;;;;37.45;16.92;;;;;;;13.93;100.00;101160.94;5200609;28;20832;-71
2022/10/14 08:14:38;;;;;;;37.70;16.30;;;;;;;13.88;100.00;101159.81;5199712;28;20083;-72
2022/10/14 08:17:08;;;;;;;44.20;17.17;;;;;;;13.94;100.00;101162.63;5198648;28;20092;-71
2022/10/14 08:19:39;;;;;;;39.15;17.42;;;;;;;14.01;100.00;101160.06;5199688;28;20606;-71
2022/10/14 08:22:09;;;;;;;36.95;17.15;;;;;;;13.97;100.00;101156.03;5200329;28;20028;-71
2022/10/14 08:24:40;;;;;;;39.00;17.45;;;;;;;13.98;100.00;101160.41;5200454;28;20013;-71
2022/10/14 08:27:10;;;;;;;35.60;17.25;;;;;;;14.06;100.00;101156.81;5198569;28;20017;-71
2022/10/14 08:29:41;;;;;;;32.58;16.67;;;;;;;14.08;100.00;101158.28;5199589;28;20039;-70
2022/10/14 08:32:11;;;;;;;35.28;17.02;;;;;;;14.12;100.00;101153.38;5199921;28;20029;-71
2022/10/14 08:34:42;;;;;;;32.45;16.88;;;;;;;14.22;100.00;101154.81;5199624;28;20029;-71
2022/10/14 08:37:12;;;;;;;34.05;16.38;;;;;;;14.32;100.00;101148.31;5198864;28;20017;-71
2022/10/14 08:39:43;;;;;;;34.83;16.17;;;;;;;14.39;100.00;101146.53;5198174;28;20021;-71
2022/10/14 08:42:38;;;;;;;28.73;15.07;;;;;;;14.50;100.00;101149.66;5199347;28;20029;-71
2022/10/14 08:45:25;;;;;;;30.95;15.07;;;;;;;14.49;100.00;101142.59;5203272;28;20082;-71
2022/10/14 08:47:57;;;;;;;29.63;14.35;;;;;;;14.55;100.00;101140.16;5203230;28;20027;-71
2022/10/14 08:50:48;;;;;;;23.23;13.35;;;;;;;14.48;100.00;101132.81;5203751;28;20091;-71
2022/10/14 08:53:37;;;;;;;27.17;14.10;;;;;;;14.52;100.00;101143.25;5204629;28;20047;-71
2022/10/14 08:56:10;;;;;;;26.40;13.70;;;;;;;14.53;100.00;101137.66;5203738;28;20014;-71
2022/10/14 08:58:50;;;;;;;25.30;14.55;;;;;;;14.60;100.00;101140.44;5203462;28;20044;-71
2022/10/14 09:01:39;;;;;;;23.27;13.63;;;;;;;14.62;100.00;101133.84;5203196;28;20490;-71
2022/10/14 09:04:13;;;;;;;23.92;13.00;;;;;;;14.62;100.00;101136.56;5204467;28;20032;-71
2022/10/14 09:06:48;;;;;;;26.83;13.60;;;;;;;14.70;100.00;101135.59;5203279;28;20048;-71
2022/10/14 09:09:25;;;;;;;22.92;12.98;;;;;;;14.74;100.00;101143.16;5203483;28;20124;-71
2022/10/14 09:12:04;;;;;;;22.38;13.80;;;;;;;14.74;100.00;101137.75;5203606;28;20021;-71
2022/10/14 09:14:41;;;;;;;19.67;11.98;;;;;;;14.84;100.00;101137.47;5203662;28;20021;-71
2022/10/14 09:17:25;;;;;;;21.75;12.35;;;;;;;14.83;100.00;101143.06;5202914;28;20060;-71
2022/10/14 09:20:12;;;;;;;20.00;13.30;;;;;;;14.87;100.00;101137.13;5203658;28;20025;-70
2022/10/14 09:22:45;;;;;;;22.23;11.35;;;;;;;14.81;100.00;101131.59;5203148;28;20397;-71
2022/10/14 09:25:24;;;;;;;20.15;11.60;;;;;;;14.84;100.00;101129.38;5203689;28;20025;-71
2022/10/14 09:27:55;;;;;;;19.88;11.07;;;;;;;14.85;100.00;101136.44;5201712;28;20383;-71
2022/10/14 09:30:29;;;;;;;13.70;9.50;;;;;;;14.89;100.00;101139.63;5203096;28;20067;-71
2022/10/14 09:33:00;;;;;;;19.45;9.60;;;;;;;14.93;100.00;101136.34;5203420;28;20406;-70
2022/10/14 09:35:34;;;;;;;16.75;10.20;;;;;;;14.98;100.00;101127.69;5203265;28;20024;-71
2022/10/14 09:38:06;;;;;;;17.47;9.03;;;;;;;15.06;100.00;101124.03;5201083;28;20040;-71
2022/10/14 09:40:46;;;;;;;17.45;8.85;;;;;;;15.07;100.00;101126.56;5202174;28;20025;-71
2022/10/14 09:43:19;;;;;;;18.10;8.80;;;;;;;15.12;100.00;101124.13;5202750;28;20100;-71
2022/10/14 09:46:01;;;;;;;15.73;8.20;;;;;;;15.03;100.00;101128.78;5202741;28;20044;-71
2022/10/14 09:48:43;;;;;;;15.82;8.93;;;;;;;15.08;100.00;101130.94;5201004;28;20018;-70
2022/10/14 09:51:20;;;;;;;11.65;8.05;;;;;;;15.15;100.00;101117.50;5202356;28;20026;-71
2022/10/14 09:53:54;;;;;;;16.65;8.20;;;;;;;15.18;100.00;101115.25;5201600;28;20049;-71
2022/10/14 09:56:37;;;;;;;11.32;7.15;;;;;;;15.19;100.00;101116.94;5200313;28;20052;-71
2022/10/14 09:59:19;;;;;;;13.95;8.50;;;;;;;15.17;100.00;101115.47;5202497;28;20491;-71
2022/10/14 10:01:51;;;;;;;11.43;7.60;;;;;;;15.20;100.00;101110.50;5203047;28;20033;-71
2022/10/14 10:04:30;;;;;;;14.32;7.55;;;;;;;15.22;100.00;101113.84;5203429;28;20025;-71
2022/10/14 10:07:06;;;;;;;14.57;7.55;;;;;;;15.21;100.00;101109.50;5201402;28;20025;-71
2022/10/14 10:09:36;;;;;;;11.63;7.32;;;;;;;15.30;100.00;101110.19;5201926;28;20033;-71
2022/10/14 10:12:34;;;;;;;10.48;6.70;;;;;;;15.32;100.00;101107.31;5202019;28;20044;-71
2022/10/14 10:15:05;;;;;;;11.10;6.80;;;;;;;15.35;100.00;101106.91;5198884;28;20094;-71
2022/10/14 10:17:39;;;;;;;13.02;7.30;;;;;;;15.46;100.00;101111.81;5200623;28;20414;-72
2022/10/14 10:20:27;;;;;;;9.85;6.03;;;;;;;15.47;100.00;101111.66;5201915;28;20026;-71
2022/10/14 10:23:16;;;;;;;11.57;6.78;;;;;;;15.53;100.00;101110.03;5201885;28;20025;-71
2022/10/14 10:25:47;;;;;;;9.25;6.10;;;;;;;15.53;100.00;101100.06;5201703;28;20033;-72
2022/10/14 10:28:26;;;;;;;10.63;5.75;;;;;;;15.42;100.00;101107.84;5200584;28;20020;-72
2022/10/14 10:31:33;;;;;;;7.45;5.00;;;;;;;15.41;100.00;101111.56;5201128;28;20026;-71
2022/10/14 10:34:19;;;;;;;9.43;5.38;;;;;;;15.35;100.00;101112.31;5197639;28;20041;-71
2022/10/14 10:36:59;;;;;;;9.32;6.03;;;;;;;15.32;100.00;101101.91;5200768;28;20633;-71
2022/10/14 10:39:50;;;;;;;8.45;5.85;;;;;;;15.32;100.00;101101.91;5201845;28;20495;-71
2022/10/14 10:42:34;;;;;;;8.70;4.72;;;;;;;15.34;100.00;101116.06;5201061;28;20089;-71
2022/10/14 10:45:21;;;;;;;7.35;4.50;;;;;;;15.31;100.00;101103.75;5201219;28;20029;-71
2022/10/14 10:48:17;;;;;;;11.38;5.35;;;;;;;15.38;100.00;101114.66;5200192;28;20415;-71
2022/10/14 10:50:57;;;;;;;8.40;5.85;;;;;;;15.37;100.00;101113.81;5200888;28;20049;-71
2022/10/14 10:53:54;;;;;;;10.32;5.72;;;;;;;15.40;100.00;101113.41;5201356;28;20075;-71
2022/10/14 10:56:44;;;;;;;11.55;5.03;;;;;;;15.47;100.00;101105.41;5201093;28;20025;-71
2022/10/14 10:59:34;;;;;;;8.55;5.45;;;;;;;15.50;100.00;101113.09;5199541;28;20017;-71
2022/10/14 11:02:10;;;;;;;8.95;5.80;;;;;;;15.58;100.00;101112.16;5201518;28;20641;-72
2022/10/14 11:05:11;;;;;;;9.93;5.45;;;;;;;15.54;100.00;101107.13;5199959;28;20025;-71
2022/10/14 11:14:54;;;;;;;10.35;6.18;;;;;;;15.41;100.00;101089.91;5200784;28;20036;-72
2022/10/14 11:17:43;;;;;;;8.50;6.03;;;;;;;15.31;100.00;101081.28;5188206;28;20025;-72
2022/10/14 11:20:35;;;;;;;7.82;5.05;;;;;;;15.19;100.00;101072.84;5200046;28;20026;-73
2022/10/14 11:23:09;;;;;;;9.48;5.05;;;;;;;15.16;100.00;101071.38;5200681;28;20025;-72
2022/10/14 11:25:51;;;;;;;7.47;5.18;;;;;;;15.13;100.00;101069.06;5201170;28;20804;-72
2022/10/14 11:29:14;;;;;;;7.25;4.88;;;;;;;15.07;100.00;101064.41;5199036;28;20018;-71
2022/10/14 11:31:50;;;;;;;8.73;5.68;;;;;;;15.09;100.00;101067.75;5200031;28;20033;-72
2022/10/14 11:34:27;;;;;;;11.00;5.00;;;;;;;15.14;100.00;101067.19;5200592;28;20022;-72
2022/10/14 11:37:15;;;;;;;10.50;6.45;;;;;;;15.10;100.00;101065.88;5199291;28;20082;-72
2022/10/14 11:39:53;;;;;;;10.07;6.57;;;;;;;15.09;100.00;101062.34;5200230;28;20553;-73
2022/10/14 11:42:40;;;;;;;12.20;6.60;;;;;;;15.11;100.00;101056.75;5198654;28;20067;-72
2022/10/14 11:45:40;;;;;;;12.63;6.30;;;;;;;15.12;100.00;101061.16;5198228;28;20406;-72
2022/10/14 11:48:26;;;;;;;13.23;7.82;;;;;;;15.10;100.00;101052.38;5198801;28;20136;-72